sensor_id;sensor_type;location;lat;lon;timestamp;P1;durP1;ratioP1;P2;durP2;ratioP2
20391;SDS011;10355;53.688;10.078;2023-07-29T00:01:55;3.22;;;2.00;;
20391;SDS011;10355;53.688;10.078;2023-07-29T00:04:38;6.57;;;2.30;;
20391;SDS011;10355;53.688;10.078;2023-07-29T00:07:20;4.07;;;2.85;;
20391;SDS011;10355;53.688;10.078;2023-07-29T00:10:05;6.60;;;3.00;;
20391;SDS011;10355;53.688;10.078;2023-07-29T00:12:48;3.70;;;2.63;;
20391;SDS011;10355;53.688;10.078;2023-07-29T00:15:31;5.50;;;3.45;;
20391;SDS011;10355;53.688;10.078;2023-07-29T00:18:14;4.75;;;3.10;;
20391;SDS011;10355;53.688;10.078;2023-07-29T00:20:56;5.05;;;3.35;;
20391;SDS011;10355;53.688;10.078;2023-07-29T00:23:40;3.85;;;2.83;;
20391;SDS011;10355;53.688;10.078;2023-07-29T00:26:24;4.57;;;3.17;;
20391;SDS011;10355;53.688;10.078;2023-07-29T00:29:10;5.80;;;2.58;;
20391;SDS011;10355;53.688;10.078;2023-07-29T00:31:53;3.05;;;2.25;;
20391;SDS011;10355;53.688;10.078;2023-07-29T00:34:35;3.95;;;2.63;;
20391;SDS011;10355;53.688;10.078;2023-07-29T00:37:18;4.55;;;1.95;;
20391;SDS011;10355;53.688;10.078;2023-07-29T00:40:01;5.15;;;2.30;;
20391;SDS011;10355;53.688;10.078;2023-07-29T00:42:46;3.13;;;2.10;;
20391;SDS011;10355;53.688;10.078;2023-07-29T00:45:29;3.45;;;2.10;;
20391;SDS011;10355;53.688;10.078;2023-07-29T00:48:11;2.45;;;1.88;;
20391;SDS011;10355;53.688;10.078;2023-07-29T00:50:54;3.50;;;2.28;;
20391;SDS011;10355;53.688;10.078;2023-07-29T00:53:37;2.67;;;1.95;;
20391;SDS011;10355;53.688;10.078;2023-07-29T00:56:21;2.15;;;1.92;;
20391;SDS011;10355;53.688;10.078;2023-07-29T00:59:05;3.42;;;2.20;;
20391;SDS011;10355;53.688;10.078;2023-07-29T01:01:48;3.38;;;2.05;;
20391;SDS011;10355;53.688;10.078;2023-07-29T01:04:30;2.53;;;2.03;;
20391;SDS011;10355;53.688;10.078;2023-07-29T01:07:14;4.20;;;2.42;;
20391;SDS011;10355;53.688;10.078;2023-07-29T01:10:02;3.28;;;2.25;;
20391;SDS011;10355;53.688;10.078;2023-07-29T01:12:47;2.80;;;2.20;;
20391;SDS011;10355;53.688;10.078;2023-07-29T01:15:33;3.63;;;2.50;;
20391;SDS011;10355;53.688;10.078;2023-07-29T01:18:18;3.03;;;2.15;;
20391;SDS011;10355;53.688;10.078;2023-07-29T01:21:03;4.25;;;2.20;;
20391;SDS011;10355;53.688;10.078;2023-07-29T01:23:47;3.33;;;2.20;;
20391;SDS011;10355;53.688;10.078;2023-07-29T01:26:34;2.97;;;2.20;;
20391;SDS011;10355;53.688;10.078;2023-07-29T01:29:17;3.80;;;2.38;;
20391;SDS011;10355;53.688;10.078;2023-07-29T01:32:01;6.80;;;2.28;;
20391;SDS011;10355;53.688;10.078;2023-07-29T01:34:47;2.65;;;2.05;;
20391;SDS011;10355;53.688;10.078;2023-07-29T01:37:32;2.72;;;2.20;;
20391;SDS011;10355;53.688;10.078;2023-07-29T01:40:16;5.68;;;3.38;;
20391;SDS011;10355;53.688;10.078;2023-07-29T01:43:00;3.92;;;3.20;;
20391;SDS011;10355;53.688;10.078;2023-07-29T01:45:43;4.43;;;2.50;;
20391;SDS011;10355;53.688;10.078;2023-07-29T01:48:26;5.32;;;2.90;;
20391;SDS011;10355;53.688;10.078;2023-07-29T01:51:11;3.53;;;2.70;;
20391;SDS011;10355;53.688;10.078;2023-07-29T01:53:54;3.45;;;2.60;;
20391;SDS011;10355;53.688;10.078;2023-07-29T01:56:38;3.15;;;1.70;;
20391;SDS011;10355;53.688;10.078;2023-07-29T01:59:21;1.95;;;1.55;;
20391;SDS011;10355;53.688;10.078;2023-07-29T02:02:04;4.10;;;1.95;;
20391;SDS011;10355;53.688;10.078;2023-07-29T02:04:46;2.80;;;2.30;;
20391;SDS011;10355;53.688;10.078;2023-07-29T02:07:33;3.78;;;2.22;;
20391;SDS011;10355;53.688;10.078;2023-07-29T02:10:15;4.72;;;2.45;;
20391;SDS011;10355;53.688;10.078;2023-07-29T02:12:59;4.88;;;2.67;;
20391;SDS011;10355;53.688;10.078;2023-07-29T02:15:42;3.85;;;2.47;;
20391;SDS011;10355;53.688;10.078;2023-07-29T02:18:25;3.25;;;2.60;;
20391;SDS011;10355;53.688;10.078;2023-07-29T02:21:08;6.75;;;2.50;;
20391;SDS011;10355;53.688;10.078;2023-07-29T02:23:51;3.45;;;2.75;;
20391;SDS011;10355;53.688;10.078;2023-07-29T02:26:33;2.80;;;2.20;;
20391;SDS011;10355;53.688;10.078;2023-07-29T02:29:18;3.55;;;2.45;;
20391;SDS011;10355;53.688;10.078;2023-07-29T02:32:00;2.70;;;2.25;;
20391;SDS011;10355;53.688;10.078;2023-07-29T02:34:43;5.20;;;2.75;;
20391;SDS011;10355;53.688;10.078;2023-07-29T02:37:26;5.78;;;2.60;;
20391;SDS011;10355;53.688;10.078;2023-07-29T02:40:09;3.97;;;2.60;;
20391;SDS011;10355;53.688;10.078;2023-07-29T02:42:52;4.82;;;2.92;;
20391;SDS011;10355;53.688;10.078;2023-07-29T02:45:36;4.57;;;2.78;;
20391;SDS011;10355;53.688;10.078;2023-07-29T02:48:19;6.43;;;3.20;;
20391;SDS011;10355;53.688;10.078;2023-07-29T02:51:01;5.15;;;2.92;;
20391;SDS011;10355;53.688;10.078;2023-07-29T02:53:44;3.78;;;2.95;;
20391;SDS011;10355;53.688;10.078;2023-07-29T02:56:27;4.20;;;2.88;;
20391;SDS011;10355;53.688;10.078;2023-07-29T02:59:09;4.32;;;3.13;;
20391;SDS011;10355;53.688;10.078;2023-07-29T03:01:53;4.03;;;2.92;;
20391;SDS011;10355;53.688;10.078;2023-07-29T03:04:36;5.32;;;3.00;;
20391;SDS011;10355;53.688;10.078;2023-07-29T03:07:19;6.57;;;3.05;;
20391;SDS011;10355;53.688;10.078;2023-07-29T03:10:02;5.03;;;3.30;;
20391;SDS011;10355;53.688;10.078;2023-07-29T03:12:44;5.22;;;3.35;;
20391;SDS011;10355;53.688;10.078;2023-07-29T03:15:28;5.72;;;3.30;;
20391;SDS011;10355;53.688;10.078;2023-07-29T03:18:12;5.70;;;3.50;;
20391;SDS011;10355;53.688;10.078;2023-07-29T03:20:55;5.63;;;3.75;;
20391;SDS011;10355;53.688;10.078;2023-07-29T03:23:38;5.18;;;3.60;;
20391;SDS011;10355;53.688;10.078;2023-07-29T03:26:21;4.85;;;3.63;;
20391;SDS011;10355;53.688;10.078;2023-07-29T03:29:03;4.45;;;3.78;;
20391;SDS011;10355;53.688;10.078;2023-07-29T03:31:46;6.15;;;3.65;;
20391;SDS011;10355;53.688;10.078;2023-07-29T03:34:30;7.75;;;3.63;;
20391;SDS011;10355;53.688;10.078;2023-07-29T03:37:13;5.78;;;3.95;;
20391;SDS011;10355;53.688;10.078;2023-07-29T03:39:56;6.22;;;3.90;;
20391;SDS011;10355;53.688;10.078;2023-07-29T03:42:40;7.22;;;4.00;;
20391;SDS011;10355;53.688;10.078;2023-07-29T03:45:22;5.28;;;3.63;;
20391;SDS011;10355;53.688;10.078;2023-07-29T03:48:05;6.75;;;3.80;;
20391;SDS011;10355;53.688;10.078;2023-07-29T03:50:49;7.20;;;3.75;;
20391;SDS011;10355;53.688;10.078;2023-07-29T03:53:32;5.43;;;4.30;;
20391;SDS011;10355;53.688;10.078;2023-07-29T03:56:15;8.05;;;4.65;;
20391;SDS011;10355;53.688;10.078;2023-07-29T03:59:01;7.32;;;4.68;;
20391;SDS011;10355;53.688;10.078;2023-07-29T04:01:44;7.10;;;4.60;;
20391;SDS011;10355;53.688;10.078;2023-07-29T04:04:28;8.07;;;5.05;;
20391;SDS011;10355;53.688;10.078;2023-07-29T04:07:12;6.85;;;4.55;;
20391;SDS011;10355;53.688;10.078;2023-07-29T04:09:55;9.32;;;5.78;;
20391;SDS011;10355;53.688;10.078;2023-07-29T04:12:38;8.25;;;6.22;;
20391;SDS011;10355;53.688;10.078;2023-07-29T04:15:21;7.43;;;5.45;;
20391;SDS011;10355;53.688;10.078;2023-07-29T04:18:03;8.82;;;6.38;;
20391;SDS011;10355;53.688;10.078;2023-07-29T04:20:46;12.50;;;7.20;;
20391;SDS011;10355;53.688;10.078;2023-07-29T04:23:30;11.20;;;7.80;;
20391;SDS011;10355;53.688;10.078;2023-07-29T04:26:13;10.88;;;7.63;;
20391;SDS011;10355;53.688;10.078;2023-07-29T04:28:55;12.27;;;8.02;;
20391;SDS011;10355;53.688;10.078;2023-07-29T04:31:39;10.65;;;7.07;;
20391;SDS011;10355;53.688;10.078;2023-07-29T04:34:22;10.95;;;7.68;;
20391;SDS011;10355;53.688;10.078;2023-07-29T04:37:05;11.30;;;7.40;;
20391;SDS011;10355;53.688;10.078;2023-07-29T04:39:49;11.98;;;8.20;;
20391;SDS011;10355;53.688;10.078;2023-07-29T04:42:32;12.02;;;7.95;;
20391;SDS011;10355;53.688;10.078;2023-07-29T04:45:16;11.35;;;8.07;;
20391;SDS011;10355;53.688;10.078;2023-07-29T04:47:59;11.30;;;8.05;;
20391;SDS011;10355;53.688;10.078;2023-07-29T04:50:42;12.13;;;7.93;;
20391;SDS011;10355;53.688;10.078;2023-07-29T04:53:24;10.70;;;7.85;;
20391;SDS011;10355;53.688;10.078;2023-07-29T04:56:08;11.80;;;7.50;;
20391;SDS011;10355;53.688;10.078;2023-07-29T04:58:51;12.43;;;7.75;;
20391;SDS011;10355;53.688;10.078;2023-07-29T05:01:35;12.27;;;8.10;;
20391;SDS011;10355;53.688;10.078;2023-07-29T05:04:18;12.20;;;8.30;;
20391;SDS011;10355;53.688;10.078;2023-07-29T05:07:00;11.68;;;8.13;;
20391;SDS011;10355;53.688;10.078;2023-07-29T05:09:43;12.10;;;8.68;;
20391;SDS011;10355;53.688;10.078;2023-07-29T05:12:27;13.07;;;8.82;;
20391;SDS011;10355;53.688;10.078;2023-07-29T05:15:10;16.02;;;8.80;;
20391;SDS011;10355;53.688;10.078;2023-07-29T05:17:53;12.63;;;8.57;;
20391;SDS011;10355;53.688;10.078;2023-07-29T05:20:36;14.80;;;9.10;;
20391;SDS011;10355;53.688;10.078;2023-07-29T05:23:19;13.70;;;8.10;;
20391;SDS011;10355;53.688;10.078;2023-07-29T05:26:02;15.30;;;9.57;;
20391;SDS011;10355;53.688;10.078;2023-07-29T05:28:46;13.85;;;8.52;;
20391;SDS011;10355;53.688;10.078;2023-07-29T05:31:29;14.15;;;8.73;;
20391;SDS011;10355;53.688;10.078;2023-07-29T05:34:12;16.98;;;8.77;;
20391;SDS011;10355;53.688;10.078;2023-07-29T05:36:55;15.85;;;9.55;;
20391;SDS011;10355;53.688;10.078;2023-07-29T05:39:37;13.23;;;8.55;;
20391;SDS011;10355;53.688;10.078;2023-07-29T05:42:20;15.68;;;9.40;;
20391;SDS011;10355;53.688;10.078;2023-07-29T05:45:04;14.43;;;8.73;;
20391;SDS011;10355;53.688;10.078;2023-07-29T05:47:47;14.60;;;8.73;;
20391;SDS011;10355;53.688;10.078;2023-07-29T05:50:30;15.15;;;9.35;;
20391;SDS011;10355;53.688;10.078;2023-07-29T05:53:14;15.88;;;9.35;;
20391;SDS011;10355;53.688;10.078;2023-07-29T05:55:57;16.30;;;9.00;;
20391;SDS011;10355;53.688;10.078;2023-07-29T05:58:40;16.48;;;9.40;;
20391;SDS011;10355;53.688;10.078;2023-07-29T06:01:24;15.18;;;9.68;;
20391;SDS011;10355;53.688;10.078;2023-07-29T06:04:07;14.23;;;9.43;;
20391;SDS011;10355;53.688;10.078;2023-07-29T06:06:50;15.27;;;10.00;;
20391;SDS011;10355;53.688;10.078;2023-07-29T06:09:33;16.27;;;9.73;;
20391;SDS011;10355;53.688;10.078;2023-07-29T06:12:15;15.68;;;10.23;;
20391;SDS011;10355;53.688;10.078;2023-07-29T06:14:58;15.65;;;9.95;;
20391;SDS011;10355;53.688;10.078;2023-07-29T06:17:42;16.95;;;9.65;;
20391;SDS011;10355;53.688;10.078;2023-07-29T06:20:25;15.25;;;9.73;;
20391;SDS011;10355;53.688;10.078;2023-07-29T06:23:08;16.65;;;9.57;;
20391;SDS011;10355;53.688;10.078;2023-07-29T06:25:51;18.45;;;9.73;;
20391;SDS011;10355;53.688;10.078;2023-07-29T06:28:33;13.80;;;9.10;;
20391;SDS011;10355;53.688;10.078;2023-07-29T06:31:16;15.93;;;9.60;;
20391;SDS011;10355;53.688;10.078;2023-07-29T06:34:00;17.90;;;9.60;;
20391;SDS011;10355;53.688;10.078;2023-07-29T06:36:43;15.93;;;9.38;;
20391;SDS011;10355;53.688;10.078;2023-07-29T06:39:26;15.68;;;9.48;;
20391;SDS011;10355;53.688;10.078;2023-07-29T06:42:09;15.38;;;9.65;;
20391;SDS011;10355;53.688;10.078;2023-07-29T06:44:52;17.33;;;9.43;;
20391;SDS011;10355;53.688;10.078;2023-07-29T06:47:34;13.90;;;8.48;;
20391;SDS011;10355;53.688;10.078;2023-07-29T06:50:18;16.90;;;8.90;;
20391;SDS011;10355;53.688;10.078;2023-07-29T06:53:02;14.90;;;8.95;;
20391;SDS011;10355;53.688;10.078;2023-07-29T06:55:45;15.18;;;9.02;;
20391;SDS011;10355;53.688;10.078;2023-07-29T06:58:28;13.70;;;8.20;;
20391;SDS011;10355;53.688;10.078;2023-07-29T07:01:11;15.68;;;9.45;;
20391;SDS011;10355;53.688;10.078;2023-07-29T07:03:53;14.90;;;8.70;;
20391;SDS011;10355;53.688;10.078;2023-07-29T07:06:41;11.88;;;8.15;;
20391;SDS011;10355;53.688;10.078;2023-07-29T07:09:23;17.17;;;9.20;;
20391;SDS011;10355;53.688;10.078;2023-07-29T07:12:06;14.52;;;8.80;;
20391;SDS011;10355;53.688;10.078;2023-07-29T07:14:49;14.98;;;8.77;;
20391;SDS011;10355;53.688;10.078;2023-07-29T07:17:32;15.07;;;8.70;;
20391;SDS011;10355;53.688;10.078;2023-07-29T07:20:15;12.80;;;8.10;;
20391;SDS011;10355;53.688;10.078;2023-07-29T07:22:59;14.13;;;8.07;;
20391;SDS011;10355;53.688;10.078;2023-07-29T07:25:42;12.27;;;7.95;;
20391;SDS011;10355;53.688;10.078;2023-07-29T07:28:25;14.43;;;8.63;;
20391;SDS011;10355;53.688;10.078;2023-07-29T07:31:08;12.30;;;7.55;;
20391;SDS011;10355;53.688;10.078;2023-07-29T07:33:50;11.25;;;8.00;;
20391;SDS011;10355;53.688;10.078;2023-07-29T07:36:33;13.20;;;8.20;;
20391;SDS011;10355;53.688;10.078;2023-07-29T07:39:18;13.48;;;7.53;;
20391;SDS011;10355;53.688;10.078;2023-07-29T07:42:01;12.07;;;7.68;;
20391;SDS011;10355;53.688;10.078;2023-07-29T07:44:43;15.38;;;8.38;;
20391;SDS011;10355;53.688;10.078;2023-07-29T07:47:26;15.43;;;8.70;;
20391;SDS011;10355;53.688;10.078;2023-07-29T07:50:09;14.20;;;9.43;;
20391;SDS011;10355;53.688;10.078;2023-07-29T07:52:52;17.10;;;9.57;;
20391;SDS011;10355;53.688;10.078;2023-07-29T07:55:36;17.30;;;9.68;;
20391;SDS011;10355;53.688;10.078;2023-07-29T07:58:19;17.02;;;9.63;;
20391;SDS011;10355;53.688;10.078;2023-07-29T08:01:02;19.13;;;10.75;;
20391;SDS011;10355;53.688;10.078;2023-07-29T08:03:45;16.60;;;9.98;;
20391;SDS011;10355;53.688;10.078;2023-07-29T08:06:28;15.88;;;9.95;;
20391;SDS011;10355;53.688;10.078;2023-07-29T08:09:11;15.88;;;9.82;;
20391;SDS011;10355;53.688;10.078;2023-07-29T08:11:55;16.20;;;9.88;;
20391;SDS011;10355;53.688;10.078;2023-07-29T08:14:38;15.82;;;9.85;;
20391;SDS011;10355;53.688;10.078;2023-07-29T08:17:21;16.60;;;9.95;;
20391;SDS011;10355;53.688;10.078;2023-07-29T08:20:04;14.82;;;9.40;;
20391;SDS011;10355;53.688;10.078;2023-07-29T08:22:48;15.77;;;9.32;;
20391;SDS011;10355;53.688;10.078;2023-07-29T08:25:31;13.35;;;8.38;;
20391;SDS011;10355;53.688;10.078;2023-07-29T08:28:15;14.65;;;9.07;;
20391;SDS011;10355;53.688;10.078;2023-07-29T08:30:57;14.57;;;8.82;;
20391;SDS011;10355;53.688;10.078;2023-07-29T08:33:40;16.25;;;9.70;;
20391;SDS011;10355;53.688;10.078;2023-07-29T08:36:23;14.75;;;9.02;;
20391;SDS011;10355;53.688;10.078;2023-07-29T08:39:06;19.25;;;9.10;;
20391;SDS011;10355;53.688;10.078;2023-07-29T08:41:49;15.13;;;8.57;;
20391;SDS011;10355;53.688;10.078;2023-07-29T08:44:38;17.30;;;10.07;;
20391;SDS011;10355;53.688;10.078;2023-07-29T08:47:22;16.40;;;9.02;;
20391;SDS011;10355;53.688;10.078;2023-07-29T08:50:05;14.20;;;9.13;;
20391;SDS011;10355;53.688;10.078;2023-07-29T08:52:49;19.80;;;9.88;;
20391;SDS011;10355;53.688;10.078;2023-07-29T08:55:32;16.17;;;9.13;;
20391;SDS011;10355;53.688;10.078;2023-07-29T08:58:15;15.38;;;10.00;;
20391;SDS011;10355;53.688;10.078;2023-07-29T09:00:59;15.23;;;9.10;;
20391;SDS011;10355;53.688;10.078;2023-07-29T09:03:42;13.38;;;8.52;;
20391;SDS011;10355;53.688;10.078;2023-07-29T09:06:25;15.73;;;9.38;;
20391;SDS011;10355;53.688;10.078;2023-07-29T09:09:08;16.48;;;9.98;;
20391;SDS011;10355;53.688;10.078;2023-07-29T09:11:51;18.23;;;10.00;;
20391;SDS011;10355;53.688;10.078;2023-07-29T09:14:34;16.38;;;9.30;;
20391;SDS011;10355;53.688;10.078;2023-07-29T09:17:19;17.55;;;10.10;;
20391;SDS011;10355;53.688;10.078;2023-07-29T09:20:07;16.10;;;9.70;;
20391;SDS011;10355;53.688;10.078;2023-07-29T09:22:52;17.50;;;9.68;;
20391;SDS011;10355;53.688;10.078;2023-07-29T09:25:35;14.98;;;9.60;;
20391;SDS011;10355;53.688;10.078;2023-07-29T09:28:18;17.17;;;9.82;;
20391;SDS011;10355;53.688;10.078;2023-07-29T09:31:02;18.55;;;10.50;;
20391;SDS011;10355;53.688;10.078;2023-07-29T09:33:46;17.05;;;9.52;;
20391;SDS011;10355;53.688;10.078;2023-07-29T09:36:30;17.52;;;9.68;;
20391;SDS011;10355;53.688;10.078;2023-07-29T09:39:13;15.65;;;9.27;;
20391;SDS011;10355;53.688;10.078;2023-07-29T09:41:57;16.60;;;9.40;;
20391;SDS011;10355;53.688;10.078;2023-07-29T09:44:39;18.67;;;9.55;;
20391;SDS011;10355;53.688;10.078;2023-07-29T09:47:22;15.30;;;8.00;;
20391;SDS011;10355;53.688;10.078;2023-07-29T09:50:07;15.80;;;9.30;;
20391;SDS011;10355;53.688;10.078;2023-07-29T09:52:52;16.73;;;9.35;;
20391;SDS011;10355;53.688;10.078;2023-07-29T09:55:35;15.25;;;8.50;;
20391;SDS011;10355;53.688;10.078;2023-07-29T09:58:19;13.93;;;7.72;;
20391;SDS011;10355;53.688;10.078;2023-07-29T10:01:02;15.25;;;8.45;;
20391;SDS011;10355;53.688;10.078;2023-07-29T10:03:44;13.75;;;7.15;;
20391;SDS011;10355;53.688;10.078;2023-07-29T10:06:29;13.15;;;7.95;;
20391;SDS011;10355;53.688;10.078;2023-07-29T10:09:12;11.38;;;7.03;;
20391;SDS011;10355;53.688;10.078;2023-07-29T10:11:55;10.63;;;6.97;;
20391;SDS011;10355;53.688;10.078;2023-07-29T10:14:38;7.80;;;5.15;;
20391;SDS011;10355;53.688;10.078;2023-07-29T10:17:21;8.40;;;5.50;;
20391;SDS011;10355;53.688;10.078;2023-07-29T10:20:05;8.32;;;4.55;;
20391;SDS011;10355;53.688;10.078;2023-07-29T10:22:49;7.00;;;4.32;;
20391;SDS011;10355;53.688;10.078;2023-07-29T10:25:35;5.95;;;3.45;;
20391;SDS011;10355;53.688;10.078;2023-07-29T10:28:20;5.22;;;3.60;;
20391;SDS011;10355;53.688;10.078;2023-07-29T10:31:03;6.13;;;3.58;;
20391;SDS011;10355;53.688;10.078;2023-07-29T10:33:47;7.00;;;3.58;;
20391;SDS011;10355;53.688;10.078;2023-07-29T10:36:31;4.15;;;3.05;;
20391;SDS011;10355;53.688;10.078;2023-07-29T10:39:15;4.35;;;3.00;;
20391;SDS011;10355;53.688;10.078;2023-07-29T10:41:58;5.85;;;3.10;;
20391;SDS011;10355;53.688;10.078;2023-07-29T10:44:48;3.78;;;2.80;;
20391;SDS011;10355;53.688;10.078;2023-07-29T10:47:31;5.57;;;3.10;;
20391;SDS011;10355;53.688;10.078;2023-07-29T10:50:17;4.93;;;2.70;;
20391;SDS011;10355;53.688;10.078;2023-07-29T10:53:00;5.07;;;3.22;;
20391;SDS011;10355;53.688;10.078;2023-07-29T10:55:44;5.03;;;3.28;;
20391;SDS011;10355;53.688;10.078;2023-07-29T10:58:27;5.88;;;3.30;;
20391;SDS011;10355;53.688;10.078;2023-07-29T11:01:12;6.40;;;3.53;;
20391;SDS011;10355;53.688;10.078;2023-07-29T11:10:04;5.20;;;3.28;;
20391;SDS011;10355;53.688;10.078;2023-07-29T11:12:49;4.38;;;2.80;;
20391;SDS011;10355;53.688;10.078;2023-07-29T11:15:33;3.58;;;2.58;;
20391;SDS011;10355;53.688;10.078;2023-07-29T11:18:16;3.50;;;2.42;;
20391;SDS011;10355;53.688;10.078;2023-07-29T11:20:59;3.22;;;2.15;;
20391;SDS011;10355;53.688;10.078;2023-07-29T11:23:42;5.10;;;2.28;;
20391;SDS011;10355;53.688;10.078;2023-07-29T11:26:25;4.50;;;2.00;;
20391;SDS011;10355;53.688;10.078;2023-07-29T11:29:10;3.33;;;2.20;;
20391;SDS011;10355;53.688;10.078;2023-07-29T11:31:53;3.70;;;2.33;;
20391;SDS011;10355;53.688;10.078;2023-07-29T11:34:36;2.95;;;2.10;;
20391;SDS011;10355;53.688;10.078;2023-07-29T11:37:18;5.65;;;2.08;;
20391;SDS011;10355;53.688;10.078;2023-07-29T11:40:03;2.92;;;2.03;;
20391;SDS011;10355;53.688;10.078;2023-07-29T11:42:47;4.10;;;2.20;;
20391;SDS011;10355;53.688;10.078;2023-07-29T11:45:34;2.70;;;2.13;;
20391;SDS011;10355;53.688;10.078;2023-07-29T11:48:32;1.40;;;1.15;;
20391;SDS011;10355;53.688;10.078;2023-07-29T11:51:15;0.88;;;0.63;;
20391;SDS011;10355;53.688;10.078;2023-07-29T11:53:59;0.60;;;0.60;;
20391;SDS011;10355;53.688;10.078;2023-07-29T11:56:42;0.98;;;0.80;;
20391;SDS011;10355;53.688;10.078;2023-07-29T11:59:27;1.27;;;0.60;;
20391;SDS011;10355;53.688;10.078;2023-07-29T12:02:13;0.80;;;0.60;;
20391;SDS011;10355;53.688;10.078;2023-07-29T12:04:56;0.47;;;0.40;;
20391;SDS011;10355;53.688;10.078;2023-07-29T12:07:39;0.50;;;0.40;;
20391;SDS011;10355;53.688;10.078;2023-07-29T12:10:22;0.88;;;0.60;;
20391;SDS011;10355;53.688;10.078;2023-07-29T12:13:05;0.77;;;0.60;;
20391;SDS011;10355;53.688;10.078;2023-07-29T12:15:50;0.60;;;0.57;;
20391;SDS011;10355;53.688;10.078;2023-07-29T12:18:36;0.40;;;0.40;;
20391;SDS011;10355;53.688;10.078;2023-07-29T12:21:19;0.85;;;0.70;;
20391;SDS011;10355;53.688;10.078;2023-07-29T12:24:02;0.73;;;0.60;;
20391;SDS011;10355;53.688;10.078;2023-07-29T12:26:46;0.95;;;0.60;;
20391;SDS011;10355;53.688;10.078;2023-07-29T12:29:29;0.65;;;0.57;;
20391;SDS011;10355;53.688;10.078;2023-07-29T12:32:12;0.50;;;0.40;;
20391;SDS011;10355;53.688;10.078;2023-07-29T12:34:56;0.52;;;0.52;;
20391;SDS011;10355;53.688;10.078;2023-07-29T12:37:39;1.90;;;0.60;;
20391;SDS011;10355;53.688;10.078;2023-07-29T12:40:24;0.70;;;0.50;;
20391;SDS011;10355;53.688;10.078;2023-07-29T12:43:07;0.98;;;0.63;;
20391;SDS011;10355;53.688;10.078;2023-07-29T12:45:50;0.40;;;0.30;;
20391;SDS011;10355;53.688;10.078;2023-07-29T12:48:32;0.60;;;0.50;;
20391;SDS011;10355;53.688;10.078;2023-07-29T12:51:16;0.50;;;0.40;;
20391;SDS011;10355;53.688;10.078;2023-07-29T12:53:59;0.60;;;0.50;;
20391;SDS011;10355;53.688;10.078;2023-07-29T12:56:42;0.52;;;0.45;;
20391;SDS011;10355;53.688;10.078;2023-07-29T12:59:25;0.40;;;0.30;;
20391;SDS011;10355;53.688;10.078;2023-07-29T13:02:08;0.52;;;0.47;;
20391;SDS011;10355;53.688;10.078;2023-07-29T13:04:51;0.52;;;0.50;;
20391;SDS011;10355;53.688;10.078;2023-07-29T13:07:35;0.57;;;0.50;;
20391;SDS011;10355;53.688;10.078;2023-07-29T13:10:18;0.50;;;0.40;;
20391;SDS011;10355;53.688;10.078;2023-07-29T13:13:01;0.60;;;0.60;;
20391;SDS011;10355;53.688;10.078;2023-07-29T13:15:44;0.60;;;0.40;;
20391;SDS011;10355;53.688;10.078;2023-07-29T13:18:27;1.65;;;0.50;;
20391;SDS011;10355;53.688;10.078;2023-07-29T13:21:10;0.50;;;0.45;;
20391;SDS011;10355;53.688;10.078;2023-07-29T13:23:54;0.50;;;0.43;;
20391;SDS011;10355;53.688;10.078;2023-07-29T13:26:37;0.57;;;0.45;;
20391;SDS011;10355;53.688;10.078;2023-07-29T13:29:20;0.47;;;0.45;;
20391;SDS011;10355;53.688;10.078;2023-07-29T13:32:03;0.43;;;0.40;;
20391;SDS011;10355;53.688;10.078;2023-07-29T13:34:46;0.40;;;0.30;;
20391;SDS011;10355;53.688;10.078;2023-07-29T13:37:29;0.63;;;0.60;;
20391;SDS011;10355;53.688;10.078;2023-07-29T13:40:13;0.43;;;0.43;;
20391;SDS011;10355;53.688;10.078;2023-07-29T13:42:56;0.40;;;0.40;;
20391;SDS011;10355;53.688;10.078;2023-07-29T13:45:38;0.20;;;0.20;;
20391;SDS011;10355;53.688;10.078;2023-07-29T13:48:22;0.32;;;0.30;;
20391;SDS011;10355;53.688;10.078;2023-07-29T13:51:04;0.40;;;0.30;;
20391;SDS011;10355;53.688;10.078;2023-07-29T13:53:47;0.40;;;0.32;;
20391;SDS011;10355;53.688;10.078;2023-07-29T13:56:31;0.50;;;0.40;;
20391;SDS011;10355;53.688;10.078;2023-07-29T13:59:15;0.60;;;0.40;;
20391;SDS011;10355;53.688;10.078;2023-07-29T14:01:58;0.40;;;0.40;;
20391;SDS011;10355;53.688;10.078;2023-07-29T14:04:40;0.55;;;0.50;;
20391;SDS011;10355;53.688;10.078;2023-07-29T14:07:23;0.32;;;0.32;;
20391;SDS011;10355;53.688;10.078;2023-07-29T14:10:06;0.30;;;0.30;;
20391;SDS011;10355;53.688;10.078;2023-07-29T14:12:52;0.40;;;0.30;;
20391;SDS011;10355;53.688;10.078;2023-07-29T14:15:35;0.28;;;0.28;;
20391;SDS011;10355;53.688;10.078;2023-07-29T14:18:18;0.32;;;0.32;;
20391;SDS011;10355;53.688;10.078;2023-07-29T14:21:02;0.45;;;0.40;;
20391;SDS011;10355;53.688;10.078;2023-07-29T14:23:45;0.47;;;0.40;;
20391;SDS011;10355;53.688;10.078;2023-07-29T14:26:28;0.73;;;0.50;;
20391;SDS011;10355;53.688;10.078;2023-07-29T14:29:12;0.38;;;0.30;;
20391;SDS011;10355;53.688;10.078;2023-07-29T14:31:55;0.43;;;0.32;;
20391;SDS011;10355;53.688;10.078;2023-07-29T14:34:38;0.30;;;0.30;;
20391;SDS011;10355;53.688;10.078;2023-07-29T14:37:21;0.30;;;0.30;;
20391;SDS011;10355;53.688;10.078;2023-07-29T14:40:04;0.50;;;0.40;;
20391;SDS011;10355;53.688;10.078;2023-07-29T14:42:47;0.32;;;0.30;;
20391;SDS011;10355;53.688;10.078;2023-07-29T14:45:31;0.38;;;0.32;;
20391;SDS011;10355;53.688;10.078;2023-07-29T14:48:14;0.55;;;0.50;;
20391;SDS011;10355;53.688;10.078;2023-07-29T14:50:57;0.30;;;0.30;;
20391;SDS011;10355;53.688;10.078;2023-07-29T14:53:40;0.52;;;0.50;;
20391;SDS011;10355;53.688;10.078;2023-07-29T14:56:23;0.50;;;0.50;;
20391;SDS011;10355;53.688;10.078;2023-07-29T14:59:06;0.38;;;0.38;;
20391;SDS011;10355;53.688;10.078;2023-07-29T15:01:50;0.30;;;0.30;;
20391;SDS011;10355;53.688;10.078;2023-07-29T15:04:32;0.30;;;0.30;;
20391;SDS011;10355;53.688;10.078;2023-07-29T15:07:15;0.40;;;0.40;;
20391;SDS011;10355;53.688;10.078;2023-07-29T15:09:58;0.28;;;0.28;;
20391;SDS011;10355;53.688;10.078;2023-07-29T15:12:41;0.30;;;0.30;;
20391;SDS011;10355;53.688;10.078;2023-07-29T15:15:24;0.55;;;0.45;;
20391;SDS011;10355;53.688;10.078;2023-07-29T15:18:09;1.25;;;0.95;;
20391;SDS011;10355;53.688;10.078;2023-07-29T15:20:52;0.73;;;0.65;;
20391;SDS011;10355;53.688;10.078;2023-07-29T15:23:34;4.90;;;1.88;;
20391;SDS011;10355;53.688;10.078;2023-07-29T15:26:17;6.20;;;2.42;;
20391;SDS011;10355;53.688;10.078;2023-07-29T15:29:00;5.40;;;3.20;;
20391;SDS011;10355;53.688;10.078;2023-07-29T15:31:43;2.28;;;1.27;;
20391;SDS011;10355;53.688;10.078;2023-07-29T15:34:27;1.60;;;1.10;;
20391;SDS011;10355;53.688;10.078;2023-07-29T15:37:13;2.42;;;1.30;;
20391;SDS011;10355;53.688;10.078;2023-07-29T15:39:55;2.95;;;1.15;;
20391;SDS011;10355;53.688;10.078;2023-07-29T15:42:38;2.78;;;1.50;;
20391;SDS011;10355;53.688;10.078;2023-07-29T15:45:21;6.00;;;1.40;;
20391;SDS011;10355;53.688;10.078;2023-07-29T15:48:05;4.03;;;1.20;;
20391;SDS011;10355;53.688;10.078;2023-07-29T15:50:49;2.30;;;1.33;;
20391;SDS011;10355;53.688;10.078;2023-07-29T15:53:33;2.60;;;1.33;;
20391;SDS011;10355;53.688;10.078;2023-07-29T15:56:16;5.30;;;1.55;;
20391;SDS011;10355;53.688;10.078;2023-07-29T15:59:00;1.40;;;1.10;;
20391;SDS011;10355;53.688;10.078;2023-07-29T16:01:44;3.55;;;1.50;;
20391;SDS011;10355;53.688;10.078;2023-07-29T16:04:28;2.78;;;1.50;;
20391;SDS011;10355;53.688;10.078;2023-07-29T16:07:12;1.52;;;1.00;;
20391;SDS011;10355;53.688;10.078;2023-07-29T16:09:55;3.90;;;1.52;;